x

West Santa Barbara 38 Nm West Of Santa Barbara, Ca (46054) Weather Station

10:20am - Tue 26th Sep 2017 All times are PDT. -7 hours from GMT.

  • Wind
    2mph, 4mph gusts
  • Sea Temp 60°f
  • 空気 Temp 61°f
  • Sea Pressure 1009.6mb
  • West Santa Barbara  38 Nm West Of Santa Barbara, Ca
  • West Santa Barbara  38 Nm West Of Santa Barbara, Ca

More Historic Weather Station data

Upgrade to MSW Pro to gain access to the past 30 days of data for over 8000 Wavebouys and Weather Stations around the globe.

Join

Comparision Forecast

View Surf forecast
   
Tue 09/26 10:20am  -   -   -  2 4 mph 1009.6mb 60f 61f
10:10am  -   -   -  4 7 mph 1009.6mb 60f 61f
10:00am  -   -   -  4 7 mph 1009.5mb 59f 61f
9:50am 4ft 9s 6s 4 9 mph 1009.4mb 59f 61f
9:40am  -   -   -  2 4 mph 1009.3mb 59f 62f
9:30am  -   -   -  2 4 mph 1009.1mb 59f 62f
9:20am  -   -   -  2 4 mph 1008.9mb 59f 62f
9:10am  -   -   -   -  2 mph 1008.9mb 59f 62f
9:00am  -   -   -   -  2 mph 1008.8mb 59f 61f
8:50am 4ft 8s 6s 2 4 mph 1008.8mb 59f 61f
8:40am 4ft  -  6s 2 4 mph 1008.6mb 59f 61f
8:30am  -   -   -  2 2 mph 1008.6mb 59f 61f
8:20am  -   -   -  2 4 mph 1008.5mb 59f 60f
8:10am  -   -   -  4 4 mph 1008.5mb 59f 61f
8:00am  -   -   -  2 2 mph 1008.4mb 59f 61f
7:50am 3.5ft 8s 6s  -  2 mph 1008.3mb 59f 61f
7:40am  -   -   -   -  2 mph 1008.2mb 59f 61f
7:30am  -   -   -  2 4 mph 1008.2mb 59f 60f
7:20am  -   -   -  4 7 mph 1008.2mb 59f 60f
7:10am  -   -   -  4 7 mph 1008.2mb 59f 60f
7:00am  -   -   -  4 7 mph 1008.1mb 59f 60f
6:50am 4ft 8s 6s 4 7 mph 1007.9mb 59f 60f
6:40am 4ft  -  6s 4 7 mph 1007.9mb 59f 60f
6:30am  -   -   -  4 7 mph 1007.9mb 59f 60f
6:20am  -   -   -  4 7 mph 1007.9mb - 60f
6:10am  -   -   -  4 7 mph 1008mb - 60f
6:00am  -   -   -  7 7 mph 1007.9mb - 60f
5:50am 3.5ft 8s 6s 7 7 mph 1007.9mb 59f 60f
5:40am  -   -   -  7 7 mph 1007.8mb 59f 60f
5:30am  -   -   -  4 7 mph 1007.8mb 59f 60f
5:20am  -   -   -  7 9 mph 1007.8mb - 60f
5:10am  -   -   -  7 9 mph 1007.7mb 59f -
5:00am  -   -   -  7 9 mph 1007.8mb 59f 60f
4:50am 3.5ft 8s 6s 7 9 mph 1007.7mb 59f 60f
4:40am 3.5ft  -  6s 7 9 mph 1007.7mb 59f 60f
4:30am  -   -   -  7 9 mph 1007.7mb 59f 60f
4:20am  -   -   -  7 9 mph 1007.7mb 59f 60f
4:10am  -   -   -  7 7 mph 1007.7mb 59f 60f
4:00am  -   -   -  4 7 mph 1007.7mb 59f 60f
3:50am 4ft 8s 6s 4 7 mph 1007.7mb 59f 60f
3:40am 4ft  -  6s 7 9 mph 1007.6mb 59f 60f
3:30am  -   -   -  7 9 mph 1007.8mb - 60f
3:20am  -   -   -  7 9 mph 1008mb - 60f
3:10am  -   -   -  9 11 mph 1008.1mb 59f 60f
3:00am  -   -   -  9 13 mph 1008.1mb 59f 60f
2:50am 4.5ft 8s 5s 11 13 mph 1008.2mb 59f 60f
2:40am  -   -   -  11 13 mph 1008.1mb 59f 60f
2:30am  -   -   -  11 13 mph 1008.2mb 59f 61f
2:20am  -   -   -  11 13 mph 1008.3mb 59f 61f
2:10am  -   -   -  11 13 mph 1008.3mb 59f 61f
2:00am  -   -   -  11 16 mph 1008.3mb 60f 61f
1:50am 4ft 8s 5s 13 16 mph 1008.3mb 60f 60f
1:40am 4ft  -  5s 13 16 mph 1008.3mb 60f 60f
1:30am  -   -   -  13 18 mph 1008.4mb 60f 60f
1:20am  -   -   -  16 18 mph 1008.4mb 60f 61f
1:10am  -   -   -  16 18 mph 1008.5mb 60f 61f
1:00am  -   -   -  16 18 mph 1008.5mb 60f 61f
12:50am 4ft 8s 5s 16 20 mph 1008.5mb 60f 61f
12:40am  -   -   -  13 18 mph 1008.6mb 60f 61f
12:30am  -   -   -  13 18 mph 1008.8mb 60f 61f
12:20am  -   -   -  18 22 mph 1008.9mb 60f 61f
12:10am  -   -   -  18 20 mph 1008.9mb 60f 61f
12:00am  -   -   -  16 20 mph 1009mb 60f 61f
Mon 09/25 11:50pm 4ft 8s 5s 18 22 mph 1009.1mb 60f 61f
11:40pm 4ft  -  5s 16 20 mph 1009mb 60f 61f
11:30pm  -   -   -  16 20 mph 1009mb 60f 61f
11:20pm  -   -   -  18 20 mph 1009.1mb 60f 61f
11:10pm  -   -   -  18 20 mph 1009.1mb 60f 61f
11:00pm  -   -   -  18 22 mph 1009.2mb 60f 61f
10:50pm 4.5ft 8s 5s 18 20 mph 1009.4mb 60f 61f
10:40pm 4.5ft  -  5s 16 20 mph 1009.3mb 60f 61f
10:30pm  -   -   -  18 22 mph 1009.3mb 60f 62f
10:20pm  -   -   -  18 22 mph 1009.2mb 60f 62f
10:10pm  -   -   -  18 20 mph 1009.2mb 60f 62f
10:00pm  -   -   -  16 20 mph 1009.3mb 60f 62f
9:50pm 4ft 5s 5s 16 18 mph 1009.3mb 60f 62f
9:40pm 4ft  -  5s 16 18 mph 1009.4mb 60f 62f
9:30pm  -   -   -  16 18 mph 1009.4mb 60f 62f
9:20pm  -   -   -  16 18 mph 1009.4mb 60f 62f
9:10pm  -   -   -  16 18 mph 1009.4mb 60f 62f
9:00pm  -   -   -  13 18 mph 1009.4mb 60f 62f
8:50pm 4.5ft 8s 5s 16 18 mph 1009.4mb 60f 62f
8:40pm 4.5ft  -  5s 16 18 mph 1009.4mb 60f 62f
8:30pm  -   -   -  13 18 mph 1009.5mb 60f 62f
8:20pm  -   -   -  16 18 mph 1009.5mb 60f 62f
8:10pm  -   -   -  16 20 mph 1009.4mb - 62f
8:00pm  -   -   -  16 20 mph 1009.4mb 60f 62f
7:50pm 3.5ft 8s 5s 16 18 mph 1009.4mb 60f 62f
7:40pm  -   -   -  16 18 mph 1009.2mb 60f 62f
7:30pm  -   -   -  16 18 mph 1009.2mb 60f 62f
7:20pm  -   -   -  16 18 mph 1009.2mb 60f 62f
7:10pm  -   -   -  16 18 mph 1009.2mb 60f 62f
7:00pm  -   -   -  16 18 mph 1009.2mb 60f 62f
6:50pm 3.5ft 8s 5s 16 20 mph 1009.1mb 60f 62f
6:40pm  -   -   -  16 18 mph 1009.2mb 60f 62f
6:30pm  -   -   -  13 18 mph 1009.3mb 60f 62f
6:20pm  -   -   -  13 18 mph 1009.3mb 60f 62f
6:10pm  -   -   -  13 18 mph 1009.2mb - 62f
6:00pm  -   -   -  13 18 mph 1009.2mb 60f 62f
5:50pm 4ft 8s 5s 13 18 mph 1009.2mb 61f 62f
5:40pm 4ft  -  5s 16 18 mph 1009.1mb 61f 62f
5:30pm  -   -   -  16 18 mph 1009.2mb 61f 62f
5:20pm  -   -   -  16 18 mph 1009.1mb 60f 62f
5:10pm  -   -   -  16 20 mph 1009.3mb 60f 62f
5:00pm  -   -   -  16 18 mph 1009.4mb 60f 62f
4:50pm 3.5ft 8s 5s 16 18 mph 1009.4mb 60f 62f
4:40pm  -   -   -  16 18 mph 1009.4mb 60f 62f
4:30pm  -   -   -  16 18 mph 1009.4mb 60f 62f
4:20pm  -   -   -  16 18 mph 1009.4mb 60f 62f
4:10pm  -   -   -  16 18 mph 1009.6mb 60f 62f
4:00pm  -   -   -  16 20 mph 1009.6mb 60f 62f
3:50pm 4ft 7s 5s 18 20 mph 1009.5mb 60f 62f
3:40pm 4ft  -  5s 18 20 mph 1009.4mb - 62f
3:30pm  -   -   -  18 20 mph 1009.5mb 60f 62f
3:20pm  -   -   -  18 20 mph 1009.6mb 60f 62f
3:10pm  -   -   -  18 22 mph 1009.6mb 61f 62f
3:00pm  -   -   -  16 20 mph 1009.6mb 61f 62f
2:50pm 4ft 8s 5s 16 20 mph 1009.8mb - 62f
2:40pm 4ft  -  5s 16 22 mph 1009.8mb - 62f
2:30pm  -   -   -  16 20 mph 1009.9mb 61f 62f
2:20pm  -   -   -  16 20 mph 1010mb 61f 62f
2:10pm  -   -   -  16 18 mph 1010.2mb 61f 62f
2:00pm  -   -   -  16 18 mph 1010.4mb - 62f
1:50pm 4ft 8s 5s 16 18 mph 1010.5mb 60f 62f
1:40pm 4ft  -  5s 16 20 mph 1010.5mb 60f 63f
1:30pm  -   -   -  16 25 mph 1010.5mb 60f 62f
1:20pm  -   -   -  16 20 mph 1010.6mb 61f 62f
1:10pm  -   -   -  16 18 mph 1010.7mb 61f 62f
1:00pm  -   -   -  16 18 mph 1010.8mb 61f 62f
12:50pm 4ft 8s 5s 16 18 mph 1010.8mb 61f 62f
12:40pm 4ft  -  5s 16 18 mph 1011mb 61f 62f
12:30pm  -   -   -  13 18 mph 1011mb 61f 62f
12:20pm  -   -   -  13 18 mph 1011mb 61f 62f
12:10pm  -   -   -  16 18 mph 1011.1mb 60f 62f
12:00pm  -   -   -  16 20 mph 1011mb 60f 62f
11:50am 3.5ft 8s 5s 16 18 mph 1011.1mb 60f 62f
11:40am 3.5ft  -  5s 16 18 mph 1011.1mb 60f 62f
11:30am  -   -   -  16 18 mph 1011.1mb 60f 62f
11:20am  -   -   -  16 18 mph 1011.2mb 60f 62f
11:10am  -   -   -  16 18 mph 1011.2mb 60f 62f
11:00am  -   -   -  13 18 mph 1011.1mb 60f 62f
10:50am 3.5ft 8s 6s 16 18 mph 1011.2mb 60f 63f
10:40am 3.5ft  -  6s 16 18 mph 1011.2mb 60f 63f
10:30am  -   -   -  13 16 mph 1011.2mb 60f 63f
10:20am  -   -   -  13 16 mph 1011.3mb 60f 63f
10:10am  -   -   -  11 13 mph 1011.3mb 60f 63f
10:00am  -   -   -  13 16 mph 1011.2mb 60f 63f
9:50am 3.5ft 8s 6s 13 16 mph 1011.2mb 60f 64f
9:40am 3.5ft  -  6s 13 16 mph 1011.2mb 60f 63f
9:30am  -   -   -  11 13 mph 1011.2mb 60f 63f
9:20am  -   -   -  11 13 mph 1011.2mb 61f 62f
9:10am  -   -   -  9 11 mph 1011.3mb 60f 62f
9:00am  -   -   -  9 11 mph 1011.3mb 60f 62f
8:50am 3.5ft 9s 6s 9 13 mph 1011.3mb 60f 61f
8:40am  -   -   -  9 13 mph 1011.3mb 60f 62f
8:30am  -   -   -  7 11 mph 1011.2mb 60f 62f
8:20am  -   -   -  7 9 mph 1011mb 60f 62f
8:10am  -   -   -  7 9 mph 1010.9mb 60f 62f
8:00am  -   -   -  7 9 mph 1011mb 60f 62f
7:50am 3.5ft 8s 6s 4 7 mph 1011mb 60f 62f
7:40am  -   -   -  7 9 mph 1010.9mb 60f 62f
7:30am  -   -   -  4 7 mph 1010.8mb 60f 62f
7:20am  -   -   -  4 7 mph 1010.9mb 60f 63f
7:10am  -   -   -  4 4 mph 1010.8mb 60f 63f
7:00am  -   -   -  4 7 mph 1010.7mb 60f 62f
6:50am 3.5ft 8s 6s 2 2 mph 1010.7mb 60f 62f
6:40am 3.5ft  -  6s 2 4 mph 1010.7mb - 62f
6:30am  -   -   -   -  4 mph 1010.5mb 60f 62f
6:20am  -   -   -  2 2 mph 1010.2mb 60f 62f
6:10am  -   -   -  2 4 mph 1010.1mb 60f 62f
6:00am  -   -   -  2 4 mph 1010.1mb 60f 62f
5:50am 3.5ft 8s 6s 4 7 mph 1010mb 60f 63f
5:40am  -   -   -  4 7 mph 1010mb 60f 63f
5:30am  -   -   -  2 4 mph 1010mb 60f 63f
5:20am  -   -   -  4 4 mph 1010mb 60f 63f
5:10am  -   -   -  4 4 mph 1010.1mb 60f 62f
5:00am  -   -   -  4 4 mph 1010mb 60f 62f
4:50am 3.5ft 9s 6s 4 7 mph 1009.9mb 60f 62f
4:40am  -   -   -  4 7 mph 1009.9mb 60f 62f
4:30am  -   -   -  4 7 mph 1009.9mb 60f 62f
4:20am  -   -   -  4 7 mph 1010.1mb 60f 62f
4:10am  -   -   -  7 7 mph 1010mb 60f 62f
4:00am  -   -   -  7 7 mph 1009.9mb 60f 62f
3:50am 3.5ft 9s 6s 7 7 mph 1010mb 60f 62f
3:40am 3.5ft  -  6s 7 9 mph 1010.1mb 60f 62f
3:30am  -   -   -  7 9 mph 1010.2mb 60f 61f
3:20am  -   -   -  7 9 mph 1010.2mb 60f 61f
3:10am  -   -   -  7 9 mph 1010.3mb 60f 61f
3:00am  -   -   -  7 9 mph 1010.3mb - 61f
2:50am 3.5ft 8s 6s 7 9 mph 1010.4mb 60f 61f
2:40am 3.5ft  -  6s 7 9 mph 1010.4mb 60f 61f
2:30am  -   -   -  7 9 mph 1010.5mb 60f 61f
2:20am  -   -   -  7 9 mph 1010.6mb 60f 61f
2:10am  -   -   -  7 9 mph 1010.6mb 60f 61f
2:00am  -   -   -  9 11 mph 1010.7mb 60f 61f
1:50am 3.5ft 8s 5s 9 11 mph 1010.7mb 60f 60f
1:40am  -   -   -  9 11 mph 1010.8mb 60f 60f
1:30am  -   -   -  9 11 mph 1010.9mb - 61f
1:20am  -   -   -  11 13 mph 1011mb 60f 60f
1:10am  -   -   -  11 13 mph 1011mb 60f 60f
1:00am  -   -   -  11 16 mph 1011mb 60f 61f
12:50am 3.5ft 9s 5s 13 16 mph 1011mb 60f 61f
12:40am 3.5ft  -  5s 13 16 mph 1011.2mb 60f 61f
12:30am  -   -   -  16 20 mph 1011.2mb 60f 61f
12:20am  -   -   -  16 18 mph 1011.4mb 60f 61f
12:10am  -   -   -  18 22 mph 1011.4mb 60f 61f
12:00am  -   -   -  18 22 mph 1011.4mb 60f 61f
Sun 09/24 11:50pm 4ft 9s 5s 18 22 mph 1011.4mb 60f 61f
11:40pm  -   -   -  18 25 mph 1011.5mb 60f 61f
11:30pm  -   -   -  18 22 mph 1011.5mb 60f 61f
11:20pm  -   -   -  18 20 mph 1011.6mb 61f 61f
11:10pm  -   -   -  16 20 mph 1011.7mb - 62f
11:00pm  -   -   -  16 20 mph 1011.7mb 61f -
10:50pm 4.5ft 9s 6s 18 20 mph 1011.6mb 61f 62f
10:40pm 4.5ft  -  6s 18 20 mph 1011.6mb 61f 62f
10:30pm  -   -   -  16 20 mph 1011.7mb 61f 62f
10:20pm  -   -   -  16 20 mph 1011.7mb 61f 62f
10:10pm  -   -   -  16 20 mph 1011.8mb 61f 62f
10:00pm  -   -   -  13 18 mph 1011.8mb - 62f
9:50pm 4.5ft 8s 6s 16 18 mph 1011.8mb 61f 62f
9:40pm 4.5ft  -  6s 16 20 mph 1011.8mb 61f 62f
9:30pm  -   -   -  16 20 mph 1011.8mb 61f 63f
9:20pm  -   -   -  16 20 mph 1011.7mb 61f 63f
9:10pm  -   -   -  16 20 mph 1011.8mb 60f 63f
9:00pm  -   -   -  16 18 mph 1011.8mb 60f 63f
8:50pm 4ft 9s 6s 16 18 mph 1011.7mb 61f 63f
8:40pm 4ft  -  6s 16 18 mph 1011.5mb 61f 63f
8:30pm  -   -   -  16 18 mph 1011.6mb 61f 62f
8:20pm  -   -   -  16 18 mph 1011.4mb 61f 62f
8:10pm  -   -   -  16 18 mph 1011.4mb 61f 62f
8:00pm  -   -   -  16 18 mph 1011.2mb 61f 62f
7:50pm 4.5ft 8s 6s 16 18 mph 1011.3mb 61f 62f
7:40pm 4.5ft  -  6s 16 20 mph 1011.2mb 61f 63f
7:30pm  -   -   -  18 20 mph 1011.1mb 61f 63f
7:20pm  -   -   -  18 22 mph 1011.1mb 61f 63f
7:10pm  -   -   -  18 22 mph 1011mb 61f 63f
7:00pm  -   -   -  16 20 mph 1010.9mb 61f 63f
6:50pm 4.5ft 9s 6s 18 20 mph 1010.8mb 61f 63f
6:40pm 4.5ft  -  6s 18 20 mph 1010.9mb 61f 62f
6:30pm  -   -   -  18 20 mph 1010.9mb 61f 62f
6:20pm  -   -   -  16 20 mph 1010.7mb 61f 62f
6:10pm  -   -   -  16 20 mph 1010.7mb 61f 62f
6:00pm  -   -   -  16 20 mph 1010.8mb - 62f
5:50pm 4.5ft 9s 6s 16 20 mph 1010.8mb 61f 62f
5:40pm 4.5ft  -  6s 16 20 mph 1010.8mb 61f 62f
5:30pm  -   -   -  16 20 mph 1010.7mb 61f 62f
5:20pm  -   -   -  16 20 mph 1010.7mb 61f 62f
5:10pm  -   -   -  16 18 mph 1010.8mb 61f 61f
5:00pm  -   -   -  16 18 mph 1010.9mb 61f 61f
4:50pm 5ft 9s 6s 16 18 mph 1010.9mb 61f 61f
4:40pm 5ft  -  6s 16 18 mph 1011mb 61f 61f
4:30pm  -   -   -  16 18 mph 1011mb 61f 61f
4:20pm  -   -   -  13 20 mph 1011mb 61f 61f
4:10pm  -   -   -  16 18 mph 1011mb 61f 61f
4:00pm  -   -   -  16 18 mph 1011mb 61f 61f
3:50pm 4.5ft 8s 6s 16 18 mph 1011mb 61f 61f
3:40pm 4.5ft  -  6s 16 20 mph 1011.1mb 61f 61f
3:30pm  -   -   -  16 18 mph 1011.1mb 61f 61f
3:20pm  -   -   -  16 20 mph 1011.1mb 61f 61f
3:10pm  -   -   -  16 18 mph 1011.2mb 61f 61f
3:00pm  -   -   -  16 18 mph 1011.3mb 61f 61f
2:50pm 4.5ft 9s 6s 13 18 mph 1011.4mb 61f 61f
2:40pm  -   -   -  13 16 mph 1011.5mb 61f 61f
2:30pm  -   -   -  13 16 mph 1011.5mb 61f 61f
2:20pm  -   -   -  13 16 mph 1011.6mb - 61f
2:10pm  -   -   -  13 16 mph 1011.6mb 61f 61f
2:00pm  -   -   -  13 16 mph 1011.7mb 61f 61f
1:50pm 4.5ft  -  6s 13 16 mph 1011.9mb - 61f
1:40pm 4.5ft 9s 6s  -  mph - 61f -
1:30pm  -   -   -  11 13 mph 1012.1mb 62f 61f
1:20pm  -   -   -  11 13 mph 1012.2mb 62f 61f
1:10pm  -   -   -  11 13 mph 1012.2mb 62f 61f
1:00pm  -   -   -  11 13 mph 1012.3mb 62f 61f
12:50pm 5ft 9s 6s 9 11 mph 1012.4mb 62f 60f
12:40pm  -   -   -  9 11 mph 1012.6mb 62f 60f
12:30pm  -   -   -  7 11 mph 1012.6mb 62f 60f
12:20pm  -   -   -  7 9 mph 1012.7mb 61f 60f
12:10pm  -   -   -  7 9 mph 1012.9mb 61f 60f
12:00pm  -   -   -  7 9 mph 1012.9mb - 60f
11:50am 4.5ft 10s 6s 7 11 mph 1012.9mb 61f 60f
11:40am 4.5ft  -  6s 9 9 mph 1012.7mb 61f 60f
11:30am  -   -   -  9 11 mph 1012.8mb 61f 60f
11:20am  -   -   -  9 11 mph 1012.8mb 61f 60f
11:10am  -   -   -  9 11 mph 1012.8mb 61f 60f
11:00am  -   -   -  9 11 mph 1012.9mb 61f 60f
10:50am 5ft 9s 6s 7 9 mph 1012.6mb 61f 60f
10:40am 5ft  -  6s 7 9 mph 1012.6mb - 60f
10:30am  -   -   -  7 9 mph 1012.7mb 61f 60f
10:20am  -   -   -  7 9 mph 1012.7mb 61f 60f
10:10am  -   -   -  4 7 mph 1012.5mb 61f 60f
10:00am  -   -   -  4 7 mph 1012.4mb 61f 60f
9:50am 5ft 9s 6s 7 7 mph 1012.4mb 61f 60f
9:40am  -   -   -  7 9 mph 1012.4mb 61f 60f
9:30am  -   -   -  7 9 mph 1012.4mb 61f 60f
9:20am  -   -   -  4 9 mph 1012.3mb 61f 60f
9:10am  -   -   -  7 9 mph 1012.2mb 61f 60f
9:00am  -   -   -  7 9 mph 1012.1mb 61f 60f
8:50am 5ft 10s 6s 9 11 mph 1012.1mb 61f 60f
8:40am 5ft  -  6s 9 11 mph 1012.1mb 61f 60f
8:30am  -   -   -  7 9 mph 1012mb 61f 60f
8:20am  -   -   -  7 9 mph 1011.8mb 61f 60f
8:10am  -   -   -  7 9 mph 1011.8mb 61f 60f
8:00am  -   -   -  7 11 mph 1011.7mb 61f 60f
7:50am 4.5ft 10s 6s 9 11 mph 1011.5mb 61f 60f
7:40am 4.5ft  -  6s 9 11 mph 1011.4mb 61f 60f
7:30am  -   -   -  9 9 mph 1011.2mb - 60f
7:20am  -   -   -  9 11 mph 1011.2mb 61f 60f
7:10am  -   -   -  9 11 mph 1011.1mb 61f 60f
7:00am  -   -   -  9 11 mph 1011mb 61f 60f
6:50am 4.5ft 9s 6s 9 11 mph 1011mb 61f 59f
6:40am 4.5ft  -  6s 9 11 mph 1010.8mb 61f 59f
6:30am  -   -   -  9 11 mph 1010.8mb 61f 59f
6:20am  -   -   -  9 11 mph 1010.7mb - 59f
6:10am  -   -   -  9 11 mph 1010.7mb 61f 59f
6:00am  -   -   -  9 13 mph 1010.6mb - 59f
5:50am 4.5ft 9s 6s 9 11 mph 1010.6mb - 59f
5:40am 4.5ft  -  6s 9 11 mph 1010.6mb 61f 59f
5:30am  -   -   -  9 11 mph 1010.5mb 61f 59f
5:20am  -   -   -  9 11 mph 1010.4mb 61f 60f
5:10am  -   -   -  9 11 mph 1010.3mb 61f 60f
5:00am  -   -   -  9 11 mph 1010.3mb 61f 60f
4:50am 5ft 9s 6s 9 11 mph 1010.2mb 61f 60f
4:40am  -   -   -  11 13 mph 1010.1mb 61f 60f
4:30am  -   -   -  11 13 mph 1010.1mb 61f 60f
4:20am  -   -   -  11 13 mph 1010.1mb 61f 60f
4:10am  -   -   -  11 13 mph 1010mb 61f 60f
4:00am  -   -   -  11 16 mph 1010mb 61f 59f
3:50am 5ft 10s 6s 13 16 mph 1009.9mb 61f 59f
3:40am 5ft  -  6s 13 18 mph 1010mb 61f 59f
3:30am  -   -   -  13 18 mph 1010mb 61f 59f
3:20am  -   -   -  13 16 mph 1010.2mb 61f 59f
3:10am  -   -   -  13 16 mph 1010.2mb 61f 59f
3:00am  -   -   -  13 18 mph 1010.2mb 61f 59f
2:50am 5ft 10s 6s 16 18 mph 1010.2mb 61f 59f
2:40am  -   -   -  16 18 mph 1010.3mb 61f 59f
2:30am  -   -   -  16 18 mph 1010.3mb 61f 59f
2:20am  -   -   -  16 18 mph 1010.3mb 60f 59f
2:10am  -   -   -  16 20 mph 1010.3mb 60f 59f
2:00am  -   -   -  16 20 mph 1010.3mb 60f 59f
1:50am 5ft 10s 6s 16 20 mph 1010.3mb 60f 59f
1:40am  -   -   -  16 20 mph 1010.3mb 60f 59f
1:30am  -   -   -  16 20 mph 1010.3mb 60f 60f
1:20am  -   -   -  16 20 mph 1010.2mb - 60f
1:10am  -   -   -  16 22 mph 1010.2mb 60f 60f
1:00am  -   -   -  16 20 mph 1010.3mb 60f 60f
12:50am 5ft 10s 6s 18 22 mph 1010.3mb 60f 60f
12:40am 5ft  -  6s 18 20 mph 1010.3mb 60f 60f
12:30am  -   -   -  18 22 mph 1010.4mb 60f 60f
12:20am  -   -   -  18 22 mph 1010.3mb - 60f
12:10am  -   -   -  18 22 mph 1010.4mb 60f 60f
12:00am  -   -   -  18 22 mph 1010.4mb 60f 60f
Sat 09/23 11:50pm 5ft 10s 6s 18 22 mph 1010.4mb 60f 60f
11:40pm 5ft  -  6s 18 22 mph 1010.6mb 60f 60f
11:30pm  -   -   -  20 25 mph 1010.6mb 60f 60f
11:20pm  -   -   -  20 25 mph 1010.5mb 60f 60f
11:10pm  -   -   -  20 22 mph 1010.5mb 60f 60f
11:00pm  -   -   -  18 22 mph 1010.5mb - 60f
10:50pm 5ft 10s 6s 18 22 mph 1010.6mb 60f 60f
10:40pm  -   -   -  18 22 mph 1010.5mb 60f 60f
10:30pm  -   -   -  18 22 mph 1010.4mb 60f 60f
10:20pm  -   -   -  18 22 mph 1010.4mb 60f 60f
10:10pm  -   -   -  18 20 mph 1010.5mb 60f 60f
10:00pm  -   -   -  18 22 mph 1010.6mb 60f 60f
9:50pm 5ft 10s 6s 18 22 mph 1010.5mb 60f 60f
9:40pm 5ft  -  6s 18 22 mph 1010.6mb 60f 60f
9:30pm  -   -   -  16 20 mph 1010.7mb 60f 60f
9:20pm  -   -   -  16 20 mph 1010.7mb 60f 60f
9:10pm  -   -   -  18 20 mph 1010.7mb 60f 60f
9:00pm  -   -   -  18 22 mph 1010.7mb 60f 60f
8:50pm 5.5ft 9s 6s 18 20 mph 1010.7mb 60f 60f
8:40pm 5.5ft  -  6s 16 20 mph 1010.7mb 60f 60f
8:30pm  -   -   -  16 20 mph 1010.7mb 59f 60f
8:20pm  -   -   -  18 20 mph 1010.7mb 59f 60f
8:10pm  -   -   -  18 22 mph 1010.7mb 59f 60f
8:00pm  -   -   -  16 20 mph 1010.6mb 59f 60f
7:50pm 6ft 10s 6s 16 20 mph 1010.6mb 60f 60f
7:40pm 6ft  -  6s 16 20 mph 1010.6mb 59f 60f
7:30pm  -   -   -  16 20 mph 1010.6mb 59f 60f
7:20pm  -   -   -  16 18 mph 1010.6mb 59f 60f
7:10pm  -   -   -  16 20 mph 1010.5mb 59f 60f
7:00pm  -   -   -  16 18 mph 1010.6mb 60f 60f
6:50pm 6ft 10s 6s 16 20 mph 1010.6mb - 60f
6:40pm  -   -   -  16 18 mph 1010.6mb 60f 60f
6:30pm  -   -   -  16 18 mph 1010.6mb 60f 60f
6:20pm  -   -   -  16 18 mph 1010.5mb 60f 60f
6:10pm  -   -   -  16 18 mph 1010.6mb - -
6:00pm  -   -   -  16 20 mph 1010.6mb 60f 60f
5:50pm 5.5ft 11s 6s 13 18 mph 1010.6mb 60f 60f
5:40pm 5.5ft  -  6s 13 18 mph 1010.7mb 60f 60f
5:30pm  -   -   -  13 18 mph 1010.6mb 60f 60f
5:20pm  -   -   -  13 18 mph 1010.7mb - 60f
5:10pm  -   -   -  11 16 mph 1010.7mb 60f 60f
5:00pm  -   -   -  11 16 mph 1010.7mb 60f 60f
4:50pm 6ft 11s 6s 13 18 mph 1010.7mb 60f 60f
4:40pm  -   -   -  16 20 mph 1010.7mb 60f 60f
4:30pm  -   -   -  16 20 mph 1010.7mb 60f 60f
4:20pm  -   -   -  16 20 mph 1010.7mb 60f 60f
4:10pm  -   -   -  18 20 mph 1010.7mb 60f 60f
4:00pm  -   -   -  18 22 mph 1010.6mb 60f 60f
3:50pm 5ft 10s 6s 18 25 mph 1010.7mb 60f 60f
3:40pm  -   -   -  20 22 mph 1010.7mb 60f 60f
3:30pm  -   -   -  20 22 mph 1010.7mb - 60f
3:20pm  -   -   -  20 25 mph 1010.7mb 60f 60f
3:10pm  -   -   -  20 27 mph 1010.8mb 60f 60f
3:00pm  -   -   -  20 25 mph 1010.9mb 60f 60f
2:50pm 5ft 10s 6s 20 25 mph 1011mb 60f 60f
2:40pm  -   -   -  20 25 mph 1011mb 60f 60f
2:30pm  -   -   -  20 25 mph 1010.9mb 60f 60f
2:20pm  -   -   -  20 25 mph 1010.9mb 60f 61f
2:10pm  -   -   -  20 25 mph 1011mb 60f 61f
2:00pm  -   -   -  20 22 mph 1010.9mb 60f 61f
1:50pm 6ft 10s 6s 20 25 mph 1010.8mb 60f 61f
1:40pm  -   -   -  20 25 mph 1010.7mb 60f 61f
1:30pm  -   -   -  20 25 mph 1010.8mb 60f 60f
1:20pm  -   -   -  18 22 mph 1010.9mb 60f 60f
1:10pm  -   -   -  20 25 mph 1011mb 60f 60f
1:00pm  -   -   -  20 25 mph 1011mb 60f 60f
12:50pm 5.5ft  -  6s 20 25 mph 1011.1mb 60f 60f
12:40pm 5.5ft 10s 6s  -  mph - - -
12:30pm  -   -   -  18 25 mph 1011.2mb 60f 61f
12:20pm  -   -   -  18 22 mph 1011.2mb 60f 61f
12:10pm  -   -   -  18 22 mph 1011.2mb 60f 60f
12:00pm  -   -   -  18 22 mph 1011.3mb 60f 60f
11:50am 6ft 11s 6s 18 22 mph 1011.4mb 60f 60f
11:40am 6ft  -  6s 18 22 mph 1011.5mb 60f 60f
11:30am  -   -   -  18 20 mph 1011.5mb 60f 60f
11:20am  -   -   -  18 20 mph 1011.5mb 60f 60f
11:10am  -   -   -  18 20 mph 1011.6mb 60f 60f
11:00am  -   -   -  16 20 mph 1011.6mb 60f 60f
10:50am 5ft 11s 6s 13 18 mph 1011.6mb 60f 60f
10:40am  -   -   -  13 18 mph 1011.8mb 60f 60f
10:30am  -   -   -  16 20 mph 1011.6mb 60f 61f
10:20am  -   -   -  16 18 mph 1011.6mb 60f 61f
10:10am  -   -   -  13 18 mph 1011.6mb 61f 61f
10:00am  -   -   -  13 18 mph 1011.5mb 61f 61f
9:50am 5ft 11s 6s 13 16 mph 1011.4mb 61f 60f
9:40am  -   -   -  16 18 mph 1011.3mb 61f 60f
9:30am  -   -   -  13 18 mph 1011.1mb 61f 60f
9:20am  -   -   -  13 18 mph 1011.2mb 61f 60f
9:10am  -   -   -  16 18 mph 1011.1mb 61f 59f
9:00am  -   -   -  13 18 mph 1011.1mb 61f 59f
8:50am 5.5ft 11s 6s 13 16 mph 1011mb 61f 59f
8:40am  -   -   -  13 18 mph 1011mb 61f 60f
8:30am  -   -   -  13 18 mph 1010.9mb 61f 60f
8:20am  -   -   -  13 16 mph 1010.8mb 61f 60f
8:10am  -   -   -  16 18 mph 1010.8mb 61f 60f
8:00am  -   -   -  16 20 mph 1010.7mb 61f 60f
7:50am 6ft 11s 6s 18 20 mph 1010.5mb 61f 59f
7:40am  -   -   -  18 22 mph 1010.4mb 61f 59f
7:30am  -   -   -  18 22 mph 1010.4mb 61f 59f
7:20am  -   -   -  18 22 mph 1010.2mb 61f 59f
7:10am  -   -   -  18 22 mph 1010mb 61f 59f
7:00am  -   -   -  18 20 mph 1010mb 61f 59f
6:50am 6ft 11s 6s 18 22 mph 1009.8mb 61f 59f
6:40am 6ft  -  6s 18 22 mph 1009.7mb 61f 59f
6:30am  -   -   -  20 22 mph 1009.7mb 61f 59f
6:20am  -   -   -  18 22 mph 1009.6mb 61f 59f
6:10am  -   -   -  18 22 mph 1009.7mb - 59f
6:00am  -   -   -  18 22 mph 1009.6mb - 59f
5:50am 6ft 11s 6s 20 25 mph 1009.4mb 61f 59f
5:40am 6ft  -  6s 20 25 mph 1009.2mb 61f 59f
5:30am  -   -   -  20 25 mph 1009.3mb 62f 59f
5:20am  -   -   -  20 25 mph 1009.1mb 62f 59f
5:10am  -   -   -  22 27 mph 1009.1mb 62f 59f
5:00am  -   -   -  22 27 mph 1009.2mb 62f 59f
4:50am 6ft 11s 6s 22 27 mph 1009.2mb 62f 59f
4:40am  -   -   -  22 27 mph 1009.2mb 62f 58f
4:30am  -   -   -  22 27 mph 1009.2mb 62f 59f
4:20am  -   -   -  22 27 mph 1009.3mb 62f 58f
4:10am  -   -   -  22 25 mph 1009.3mb 62f 59f
4:00am  -   -   -  22 27 mph 1009.3mb 62f 59f
3:50am 5.5ft 11s 6s 20 27 mph 1009.4mb 62f 59f
3:40am 5.5ft  -  6s 22 25 mph 1009.5mb 62f 59f
3:30am  -   -   -  20 27 mph 1009.5mb 62f 59f
3:20am  -   -   -  22 27 mph 1009.4mb 62f 59f
3:10am  -   -   -  22 27 mph 1009.4mb 62f 59f
3:00am  -   -   -  22 29 mph 1009.4mb 62f 59f
2:50am 5ft 11s 6s 22 27 mph 1009.6mb 62f 59f
2:40am 5ft  -  6s 22 27 mph 1009.6mb 62f 59f
2:30am  -   -   -  22 27 mph 1009.6mb 62f 59f
2:20am  -   -   -  22 27 mph 1009.6mb 62f 59f
2:10am  -   -   -  22 29 mph 1009.7mb 62f 59f
2:00am  -   -   -  22 27 mph 1009.7mb 62f 59f
1:50am 5ft 11s 6s 22 27 mph 1009.6mb 62f 59f
1:40am 5ft  -  6s 22 29 mph 1009.7mb 62f 59f
1:30am  -   -   -  22 27 mph 1009.7mb 62f 59f
1:20am  -   -   -  22 27 mph 1009.7mb 62f 59f
1:10am  -   -   -  22 27 mph 1009.8mb 62f 59f
1:00am  -   -   -  22 27 mph 1009.8mb 62f 59f
12:50am 5ft 11s 6s 20 25 mph 1009.9mb 62f 59f
12:40am 5ft  -  6s 20 27 mph 1009.9mb 62f 59f
12:30am  -   -   -  20 25 mph 1010mb - 59f
12:20am  -   -   -  20 22 mph 1010mb 62f 59f
12:10am  -   -   -  20 27 mph 1010.1mb - 59f
12:00am  -   -   -  20 25 mph 1010.1mb 62f 59f
Fri 09/22 11:50pm 4.5ft 11s 6s 18 22 mph 1010.1mb 62f 59f
11:40pm 4.5ft  -  6s 18 22 mph 1010.1mb 62f 60f
11:30pm  -   -   -  18 22 mph 1010.2mb 62f 60f
11:20pm  -   -   -  18 22 mph 1010.2mb 62f 60f
11:10pm  -   -   -  20 22 mph 1010.2mb 62f 60f
11:00pm  -   -   -  18 22 mph 1010.3mb 62f 60f
10:50pm 5ft 10s 6s 18 22 mph 1010.3mb 62f 60f
10:40pm 5ft  -  6s 18 22 mph 1010.4mb 62f 60f
10:30pm  -   -   -  18 22 mph 1010.4mb 62f 60f
10:20pm  -   -   -  18 22 mph 1010.5mb 62f 60f
10:10pm  -   -   -  18 25 mph 1010.5mb 62f 60f
10:00pm  -   -   -  20 22 mph 1010.5mb 62f 60f
9:50pm 5ft 11s 6s 18 22 mph 1010.5mb 62f 60f
9:40pm  -   -   -  18 22 mph 1010.5mb 62f 60f
9:30pm  -   -   -  18 22 mph 1010.7mb 62f 60f
9:20pm  -   -   -  18 25 mph 1010.7mb 62f 60f
9:10pm  -   -   -  18 22 mph 1010.7mb 62f 60f
9:00pm  -   -   -  20 25 mph 1010.7mb 62f 60f
8:50pm 5.5ft 10s 6s 18 22 mph 1010.7mb 62f 60f
8:40pm 5.5ft  -  6s 20 25 mph 1010.6mb 62f 60f
8:30pm  -   -   -  18 22 mph 1010.6mb 62f 60f
8:20pm  -   -   -  18 22 mph 1010.5mb 62f 60f
8:10pm  -   -   -  18 22 mph 1010.5mb 62f 60f
8:00pm  -   -   -  18 25 mph 1010.4mb 62f 60f
7:50pm 6ft 11s 6s 18 22 mph 1010.3mb 62f 60f
7:40pm  -   -   -  18 22 mph 1010.3mb 62f 60f
7:30pm  -   -   -  20 25 mph 1010.2mb 62f 60f
7:20pm  -   -   -  20 25 mph 1010mb 62f 60f
7:10pm  -   -   -  20 25 mph 1010mb 62f 61f
7:00pm  -   -   -  22 27 mph 1010mb 62f 61f
6:50pm 6ft 11s 6s 20 25 mph 1010.1mb 62f 61f
6:40pm 6ft  -  6s 20 25 mph 1010.2mb 62f 61f
6:30pm  -   -   -  20 25 mph 1010.2mb 62f 61f
6:20pm  -   -   -  20 22 mph 1010.1mb 62f 61f